Time;durP1;ratioP1;P1;durP2;ratioP2;P2;SDS_P1;SDS_P2;PMS_P1;PMS_P2;Temp;Humidity;BMP_temperature;BMP_pressure;BME280_temperature;BME280_humidity;BME280_pressure;Samples;Min_cycle;Max_cycle;Signal;HPM_P1;HPM_P2
2021/01/03 00:00:37;;;;;;;26.63;15.60;;;;;;;6.66;86.88;95092.19;4993916;28;20447;-82
2021/01/03 00:03:04;;;;;;;23.37;13.73;;;;;;;6.65;87.42;95083.53;4993602;28;20452;-82
2021/01/03 00:05:33;;;;;;;27.53;15.80;;;;;;;6.70;87.43;95094.50;4993637;28;20448;-81
2021/01/03 00:08:00;;;;;;;24.13;15.20;;;;;;;6.66;87.30;95087.81;4993669;28;20444;-82
2021/01/03 00:10:27;;;;;;;25.10;14.07;;;;;;;6.66;88.43;95093.03;4993176;28;20858;-81
2021/01/03 00:12:54;;;;;;;31.63;16.07;;;;;;;6.65;88.62;95095.72;4993276;28;20518;-83
2021/01/03 00:15:22;;;;;;;26.30;16.03;;;;;;;6.77;88.03;95094.91;4993209;28;20448;-82
2021/01/03 00:17:49;;;;;;;21.77;14.87;;;;;;;6.77;88.34;95084.47;4993179;28;20440;-83
2021/01/03 00:20:18;;;;;;;28.20;15.80;;;;;;;6.79;88.42;95099.09;4993377;28;20497;-82
2021/01/03 00:22:45;;;;;;;27.57;17.07;;;;;;;6.83;88.15;95094.50;4959674;28;20459;-83
2021/01/03 00:25:12;;;;;;;22.87;14.77;;;;;;;6.92;87.48;95104.31;4993568;28;20444;-83
2021/01/03 00:27:39;;;;;;;21.47;14.00;;;;;;;6.91;87.64;95092.22;4993431;28;20456;-82
2021/01/03 00:30:07;;;;;;;23.30;15.30;;;;;;;7.00;87.85;95098.59;4993139;28;20492;-83
2021/01/03 00:32:33;;;;;;;25.37;14.97;;;;;;;7.05;86.85;95096.50;4974799;28;20447;-82
2021/01/03 00:35:01;;;;;;;26.20;16.23;;;;;;;7.11;86.87;95085.66;4992715;28;20452;-82
2021/01/03 00:37:27;;;;;;;23.30;15.40;;;;;;;7.08;87.46;95080.66;4992859;28;20456;-82
2021/01/03 00:39:54;;;;;;;31.23;17.33;;;;;;;7.09;87.85;95077.09;4993051;28;21006;-83
2021/01/03 00:42:20;;;;;;;26.90;18.97;;;;;;;7.06;87.67;95079.91;4993067;28;20444;-82
2021/01/03 00:44:46;;;;;;;31.10;18.00;;;;;;;7.14;87.88;95082.81;4992912;28;20483;-82
2021/01/03 00:47:13;;;;;;;32.00;17.93;;;;;;;7.15;87.16;95085.34;4992867;28;20933;-82
2021/01/03 00:49:39;;;;;;;31.10;16.30;;;;;;;7.23;87.28;95086.56;4992875;28;21095;-82
2021/01/03 00:52:06;;;;;;;26.60;16.80;;;;;;;7.26;86.76;95081.19;4992967;28;20452;-82
2021/01/03 00:54:34;;;;;;;24.90;16.70;;;;;;;7.31;86.50;95079.91;4996294;28;20456;-82
2021/01/03 00:57:00;;;;;;;31.13;16.80;;;;;;;7.39;86.67;95074.16;4978948;28;20448;-82
2021/01/03 00:59:26;;;;;;;24.80;16.37;;;;;;;7.43;86.35;95075.59;4997954;28;20868;-84
2021/01/03 01:01:53;;;;;;;22.00;16.13;;;;;;;7.44;86.80;95072.06;4997079;28;20867;-82
2021/01/03 01:04:19;;;;;;;32.30;17.13;;;;;;;7.48;86.52;95070.91;4962762;28;20443;-81
2021/01/03 01:06:45;;;;;;;28.37;17.70;;;;;;;7.54;86.55;95072.25;4997488;28;20463;-82
2021/01/03 01:09:13;;;;;;;25.37;16.83;;;;;;;7.60;86.43;95069.22;4996752;28;20483;-82
2021/01/03 01:11:40;;;;;;;23.60;14.90;;;;;;;7.59;85.79;95052.72;4997071;28;20499;-82
2021/01/03 01:14:07;;;;;;;28.03;16.77;;;;;;;7.63;85.84;95054.16;4996688;28;20958;-82
2021/01/03 01:16:34;;;;;;;25.73;16.40;;;;;;;7.68;85.83;95049.44;4997125;28;20443;-82
2021/01/03 01:19:00;;;;;;;23.90;15.60;;;;;;;7.71;85.96;95048.38;4997535;28;20803;-82
2021/01/03 01:21:26;;;;;;;25.43;15.87;;;;;;;7.74;85.76;95046.38;4997125;28;20444;-82
2021/01/03 01:23:53;;;;;;;29.17;16.93;;;;;;;7.73;86.08;95029.06;4997411;28;20920;-82
2021/01/03 01:26:20;;;;;;;35.07;17.60;;;;;;;7.77;86.00;95029.66;4999866;28;20448;-82
2021/01/03 01:28:46;;;;;;;33.03;17.77;;;;;;;7.75;86.09;95036.78;4997042;28;20451;-82
2021/01/03 01:31:13;;;;;;;31.93;19.53;;;;;;;7.70;86.05;95047.56;4997560;28;20448;-82
2021/01/03 01:33:39;;;;;;;41.27;21.27;;;;;;;7.69;86.15;95038.06;4997386;28;20436;-80
2021/01/03 01:36:07;;;;;;;37.93;19.23;;;;;;;7.64;86.61;95032.31;4997192;28;20448;-82
2021/01/03 01:38:33;;;;;;;33.20;18.27;;;;;;;7.70;86.49;95020.59;4962750;28;20480;-82
2021/01/03 01:41:00;;;;;;;37.30;18.53;;;;;;;7.54;87.85;95020.03;4997096;28;20960;-81
2021/01/03 01:43:28;;;;;;;28.43;17.20;;;;;;;7.22;89.62;95023.09;4997349;28;20448;-82
2021/01/03 01:45:55;;;;;;;34.20;18.70;;;;;;;7.22;89.86;95022.28;4997135;28;20829;-82
2021/01/03 01:48:26;;;;;;;30.07;17.73;;;;;;;6.99;90.88;95014.28;4996791;28;20449;-82
2021/01/03 01:50:56;;;;;;;34.83;18.97;;;;;;;6.99;92.46;95016.91;4996786;28;20827;-82
2021/01/03 01:53:31;;;;;;;27.07;16.90;;;;;;;6.82;92.72;95010.22;4996109;28;20814;-82
2021/01/03 01:56:07;;;;;;;25.20;16.60;;;;;;;6.76;94.19;95015.00;4996496;28;20494;-82
2021/01/03 01:58:42;;;;;;;30.37;19.07;;;;;;;6.75;94.28;95018.56;4996181;28;20490;-82
2021/01/03 02:01:16;;;;;;;33.23;19.20;;;;;;;6.83;93.38;95011.88;4996046;28;20975;-82
2021/01/03 02:03:51;;;;;;;35.40;17.50;;;;;;;6.95;93.43;94999.78;4961235;28;20448;-81
2021/01/03 02:06:22;;;;;;;29.50;18.60;;;;;;;7.15;92.14;95003.59;4960462;28;20446;-82
2021/01/03 02:08:53;;;;;;;30.87;18.27;;;;;;;7.26;91.85;94997.66;4995654;28;20456;-82
2021/01/03 02:11:25;;;;;;;29.37;18.87;;;;;;;7.27;91.20;94997.56;4995639;28;20456;-82
2021/01/03 02:13:54;;;;;;;33.20;19.17;;;;;;;7.24;90.80;94989.09;4995402;28;20507;-83
2021/01/03 02:16:23;;;;;;;32.10;17.30;;;;;;;7.26;91.13;94988.06;4995263;28;20440;-83
2021/01/03 02:18:51;;;;;;;26.10;17.40;;;;;;;7.27;91.15;94986.28;4995521;28;20463;-82
2021/01/03 02:21:24;;;;;;;29.00;18.23;;;;;;;7.28;90.14;94978.34;4995590;28;20448;-82
2021/01/03 02:24:00;;;;;;;25.90;17.30;;;;;;;7.27;90.54;94974.06;4995931;28;20814;-82
2021/01/03 02:26:30;;;;;;;30.40;17.50;;;;;;;7.26;90.36;94977.63;4995320;28;20841;-82
2021/01/03 02:28:58;;;;;;;31.23;16.50;;;;;;;7.28;90.51;94970.50;4995551;28;20912;-82
2021/01/03 02:31:34;;;;;;;29.23;17.63;;;;;;;7.24;90.44;94973.44;4995979;28;20487;-83
2021/01/03 02:34:05;;;;;;;26.57;16.50;;;;;;;7.30;90.53;94973.00;4995724;28;20448;-82
2021/01/03 02:36:36;;;;;;;26.93;15.77;;;;;;;7.16;90.68;94971.34;4976857;28;20432;-81
2021/01/03 02:39:16;;;;;;;26.07;14.90;;;;;;;7.13;90.28;94966.34;4995131;28;20513;-82
2021/01/03 02:41:44;;;;;;;29.17;17.50;;;;;;;7.20;90.29;94977.19;4995247;28;20447;-82
2021/01/03 02:44:10;;;;;;;31.30;17.43;;;;;;;7.17;90.21;94969.56;4994830;28;20452;-82
2021/01/03 02:46:37;;;;;;;25.60;15.90;;;;;;;7.10;90.96;94977.00;4995009;28;20475;-82
2021/01/03 02:49:04;;;;;;;25.97;15.40;;;;;;;7.04;91.16;94967.84;4994620;28;20448;-83
2021/01/03 02:51:34;;;;;;;25.77;15.73;;;;;;;7.06;91.56;94972.94;4995089;28;20514;-82
2021/01/03 02:54:01;;;;;;;24.20;15.43;;;;;;;6.99;91.93;94975.16;4994549;28;20428;-83
2021/01/03 02:56:27;;;;;;;22.60;14.30;;;;;;;6.93;92.39;94985.16;4995182;28;20440;-82
2021/01/03 02:58:55;;;;;;;21.57;14.20;;;;;;;7.04;91.35;94982.66;4994657;28;20444;-82
2021/01/03 03:01:21;;;;;;;24.43;14.33;;;;;;;7.04;91.04;94972.22;4994902;28;20452;-82
2021/01/03 03:03:47;;;;;;;23.43;13.90;;;;;;;7.14;91.18;94975.84;4994343;28;20452;-81
2021/01/03 03:06:14;;;;;;;22.70;14.40;;;;;;;7.04;91.00;94980.88;4994892;28;20447;-81
2021/01/03 03:08:40;;;;;;;22.00;13.43;;;;;;;7.05;92.10;94976.50;4994531;28;20940;-81
2021/01/03 03:11:08;;;;;;;18.63;10.77;;;;;;;7.13;91.19;94976.78;4994380;28;21013;-81
2021/01/03 03:13:34;;;;;;;18.93;12.13;;;;;;;7.02;91.92;94974.09;4994417;28;20460;-81
2021/01/03 03:16:02;;;;;;;27.60;15.17;;;;;;;7.06;92.70;94959.91;4993851;28;20479;-81
2021/01/03 03:18:28;;;;;;;17.80;11.80;;;;;;;7.04;93.06;94964.38;4976191;28;20463;-81
2021/01/03 03:20:54;;;;;;;20.67;14.13;;;;;;;7.08;93.31;94966.69;4994184;28;20444;-81
2021/01/03 03:23:21;;;;;;;21.13;12.70;;;;;;;7.21;92.94;94958.81;4994730;28;20467;-81
2021/01/03 03:25:48;;;;;;;17.27;12.07;;;;;;;7.12;92.40;94962.06;4994097;28;20448;-81
2021/01/03 03:28:15;;;;;;;22.90;13.90;;;;;;;7.34;92.37;94961.41;4994339;28;20455;-81
2021/01/03 03:30:42;;;;;;;17.30;11.47;;;;;;;7.33;92.19;94959.72;4994231;28;20484;-81
2021/01/03 03:33:09;;;;;;;18.10;11.87;;;;;;;7.30;92.38;94957.34;4993961;28;20447;-81
2021/01/03 03:35:37;;;;;;;17.97;11.70;;;;;;;7.17;92.88;94959.97;4975632;28;20483;-81
2021/01/03 03:38:05;;;;;;;18.40;11.87;;;;;;;7.32;92.61;94961.50;4975859;28;20442;-82
2021/01/03 03:40:31;;;;;;;19.50;13.00;;;;;;;7.46;92.78;94960.50;4975713;28;20428;-81
2021/01/03 03:42:58;;;;;;;16.67;11.60;;;;;;;7.52;92.64;94954.00;4994287;28;20459;-81
2021/01/03 03:45:24;;;;;;;18.60;11.70;;;;;;;7.58;92.43;94949.22;4993604;28;20498;-81
2021/01/03 03:47:51;;;;;;;20.00;11.97;;;;;;;7.69;92.28;94946.66;4993759;28;21011;-81
2021/01/03 03:50:21;;;;;;;24.30;13.00;;;;;;;7.72;92.29;94949.03;4993808;28;20496;-81
2021/01/03 03:52:48;;;;;;;22.13;12.97;;;;;;;7.75;91.89;94954.03;4993686;28;20929;-81
2021/01/03 03:55:15;;;;;;;23.27;10.90;;;;;;;7.76;92.06;94955.69;4993889;28;20555;-81
2021/01/03 03:57:42;;;;;;;17.30;10.73;;;;;;;7.85;91.64;94941.16;4993692;28;20448;-81
2021/01/03 04:00:10;;;;;;;19.63;11.23;;;;;;;7.90;91.59;94952.09;4993402;28;20990;-81
2021/01/03 04:02:36;;;;;;;15.23;11.20;;;;;;;7.96;91.56;94949.03;4959789;28;20476;-82
2021/01/03 04:05:04;;;;;;;15.37;11.13;;;;;;;8.00;91.98;94941.78;4993303;28;20452;-81
2021/01/03 04:07:31;;;;;;;24.13;13.23;;;;;;;8.06;91.14;94952.63;4993557;28;20444;-81
2021/01/03 04:09:57;;;;;;;22.20;12.53;;;;;;;8.11;91.27;94948.84;4993402;28;20489;-81
2021/01/03 04:12:24;;;;;;;35.77;12.70;;;;;;;8.12;91.35;94945.28;4993686;28;20448;-82
2021/01/03 04:14:50;;;;;;;23.67;15.27;;;;;;;8.13;90.99;94942.56;4993397;28;20441;-82
2021/01/03 04:17:19;;;;;;;19.93;14.43;;;;;;;8.18;90.82;94952.66;4993323;28;20448;-81
2021/01/03 04:19:45;;;;;;;25.53;15.70;;;;;;;8.20;90.88;94950.78;4993177;28;20475;-82
2021/01/03 04:22:12;;;;;;;42.20;24.27;;;;;;;8.20;91.26;94942.94;4993126;28;20452;-81
2021/01/03 04:24:39;;;;;;;44.43;27.97;;;;;;;8.24;91.20;94941.75;4993221;28;20644;-82
2021/01/03 04:27:08;;;;;;;32.83;22.80;;;;;;;8.25;90.79;94943.41;4992697;28;20475;-82
2021/01/03 04:29:34;;;;;;;36.60;23.27;;;;;;;8.28;90.84;94946.63;4992695;28;21011;-81
2021/01/03 04:32:03;;;;;;;32.40;20.03;;;;;;;8.29;91.23;94952.69;4992955;28;20539;-82
2021/01/03 04:34:30;;;;;;;25.90;18.87;;;;;;;8.31;90.75;94958.63;4992784;28;20508;-81
2021/01/03 04:36:58;;;;;;;27.47;18.50;;;;;;;8.35;90.57;94962.72;4974877;28;20523;-81
2021/01/03 04:39:25;;;;;;;22.80;17.07;;;;;;;8.36;89.73;94953.91;4993120;28;20457;-81
2021/01/03 04:41:57;;;;;;;25.63;15.60;;;;;;;8.39;90.24;94958.94;4992874;28;20820;-81
2021/01/03 04:44:31;;;;;;;25.17;15.90;;;;;;;8.40;90.29;94951.94;4993045;28;20485;-81
2021/01/03 04:47:01;;;;;;;19.67;13.40;;;;;;;8.39;90.49;94956.34;4993078;28;20460;-82
2021/01/03 04:49:37;;;;;;;19.50;13.63;;;;;;;8.42;90.48;94965.72;4992540;28;20583;-82
2021/01/03 04:52:38;;;;;;;21.13;15.73;;;;;;;8.40;90.72;94960.63;4993083;28;20503;-82
2021/01/03 04:55:11;;;;;;;22.73;14.27;;;;;;;8.40;91.06;94954.56;4993259;28;20463;-82
2021/01/03 04:57:44;;;;;;;19.50;14.03;;;;;;;8.40;91.22;94952.78;4992809;28;20445;-81
2021/01/03 05:00:11;;;;;;;20.90;14.40;;;;;;;8.42;90.85;94956.09;4992727;28;20451;-81
2021/01/03 05:02:55;;;;;;;19.80;13.47;;;;;;;8.43;91.01;94954.31;4993001;28;20453;-82
2021/01/03 05:05:32;;;;;;;25.37;14.13;;;;;;;8.29;90.60;94955.31;4992926;28;20443;-81
2021/01/03 05:08:08;;;;;;;18.00;14.20;;;;;;;8.26;91.34;94951.13;4992512;28;20806;-82
2021/01/03 05:10:34;;;;;;;19.30;14.50;;;;;;;8.27;91.65;94951.97;4974367;28;20558;-81
2021/01/03 05:13:11;;;;;;;18.40;12.30;;;;;;;8.29;91.35;94948.28;4992673;28;20948;-82
2021/01/03 05:15:37;;;;;;;16.57;12.27;;;;;;;8.29;91.30;94942.22;4992704;28;20846;-81
2021/01/03 05:18:06;;;;;;;17.93;13.73;;;;;;;8.24;91.15;94949.59;4992631;28;20449;-82
2021/01/03 05:20:33;;;;;;;20.27;14.60;;;;;;;8.18;91.29;94953.50;4974204;28;20471;-82
2021/01/03 05:23:14;;;;;;;18.93;13.00;;;;;;;8.23;91.33;94963.59;4992737;28;20440;-82
2021/01/03 05:25:42;;;;;;;14.23;12.47;;;;;;;8.25;91.19;94959.09;4992721;28;20456;-82
2021/01/03 05:28:19;;;;;;;21.80;13.80;;;;;;;8.29;91.07;94963.16;4992656;28;21005;-82
2021/01/03 05:30:45;;;;;;;14.70;10.90;;;;;;;8.27;90.51;94954.59;4958290;28;20476;-81
2021/01/03 05:33:16;;;;;;;16.47;12.60;;;;;;;8.31;90.54;94956.03;4992253;28;20456;-81
2021/01/03 05:35:44;;;;;;;17.60;10.70;;;;;;;8.34;90.63;94951.41;4992534;28;20444;-85
2021/01/03 05:38:36;;;;;;;13.50;10.90;;;;;;;8.37;90.74;94952.97;4993924;28;20474;-88
2021/01/03 05:41:13;;;;;;;22.17;14.63;;;;;;;8.34;91.11;94954.03;4998153;28;20452;-91
2021/01/03 05:43:40;;;;;;;26.37;16.83;;;;;;;8.37;91.76;94950.34;4997513;28;20463;-82
2021/01/03 05:46:17;;;;;;;21.40;15.20;;;;;;;8.40;92.04;94955.38;4996065;28;20483;-89
2021/01/03 05:48:54;;;;;;;28.27;15.67;;;;;;;8.41;91.77;94957.06;4996414;28;20457;-84
2021/01/03 05:51:32;;;;;;;25.07;15.47;;;;;;;8.42;91.82;94963.94;4996331;28;20484;-83
2021/01/03 05:54:03;;;;;;;20.73;14.53;;;;;;;8.39;92.00;94953.72;4995912;28;20836;-85
2021/01/03 05:56:33;;;;;;;25.27;15.60;;;;;;;8.38;92.15;94970.31;4997311;28;20467;-84
2021/01/03 05:59:01;;;;;;;33.83;17.70;;;;;;;8.33;92.37;94973.28;4996851;28;20816;-84
2021/01/03 06:01:30;;;;;;;32.70;18.80;;;;;;;8.31;93.07;94974.31;4996720;28;20461;-84
2021/01/03 06:04:07;;;;;;;26.00;15.57;;;;;;;8.30;93.14;94970.88;4996771;28;20445;-84
2021/01/03 06:07:00;;;;;;;31.00;18.00;;;;;;;8.29;93.56;94978.84;4996601;28;20942;-84
2021/01/03 06:09:36;;;;;;;26.40;17.60;;;;;;;8.30;93.83;94970.88;4996516;28;20935;-84
2021/01/03 06:12:06;;;;;;;30.43;17.50;;;;;;;8.29;93.47;94963.16;4996195;28;20885;-84
2021/01/03 06:14:35;;;;;;;36.73;22.70;;;;;;;8.13;94.05;94962.63;4996517;28;20448;-85
2021/01/03 06:17:15;;;;;;;34.73;20.50;;;;;;;8.11;94.05;94967.97;4996872;28;20457;-84
2021/01/03 06:19:47;;;;;;;27.57;18.87;;;;;;;8.12;94.54;94982.72;4996398;28;20484;-85
2021/01/03 06:22:35;;;;;;;24.97;16.93;;;;;;;8.05;95.04;94974.47;4996549;28;20775;-84
2021/01/03 06:25:28;;;;;;;23.23;16.97;;;;;;;8.08;95.62;94981.25;4996273;28;20444;-85
2021/01/03 06:28:02;;;;;;;31.13;20.40;;;;;;;8.12;95.83;94981.88;4996320;28;20451;-85
2021/01/03 06:30:33;;;;;;;31.27;22.50;;;;;;;8.15;95.32;94981.66;4995315;28;20494;-84
2021/01/03 06:33:40;;;;;;;37.33;25.23;;;;;;;8.14;95.21;94977.38;4996089;28;20441;-83
2021/01/03 06:36:15;;;;;;;44.70;25.70;;;;;;;8.12;95.79;94981.88;4996410;28;20498;-86
2021/01/03 06:39:03;;;;;;;39.80;26.27;;;;;;;8.14;96.20;94987.81;4962900;28;20448;-86
2021/01/03 06:41:49;;;;;;;34.63;23.30;;;;;;;8.18;95.80;95004.94;4996709;28;20476;-87
2021/01/03 06:44:47;;;;;;;45.33;28.77;;;;;;;8.22;96.01;94999.38;4996175;28;20487;-89
2021/01/03 06:47:47;;;;;;;42.50;27.07;;;;;;;8.23;95.58;95000.22;4934407;29;20884;-84
2021/01/03 06:50:38;;;;;;;38.77;27.23;;;;;;;8.23;95.72;94994.97;4876136;29;20498;-84
2021/01/03 06:53:49;;;;;;;33.50;22.00;;;;;;;8.14;95.98;95006.13;4878738;29;20450;-84
2021/01/03 06:56:41;;;;;;;26.07;18.33;;;;;;;8.15;96.18;94999.94;4822750;29;20456;-85
2021/01/03 06:59:39;;;;;;;31.83;20.03;;;;;;;7.82;97.49;95013.69;4821476;29;20460;-84
2021/01/03 07:02:06;;;;;;;34.10;18.37;;;;;;;7.70;98.18;95004.94;4823327;29;20485;-85
2021/01/03 07:04:36;;;;;;;27.20;18.50;;;;;;;7.78;98.61;95015.66;4792758;29;20460;-84
2021/01/03 07:07:11;;;;;;;40.30;24.10;;;;;;;7.90;98.36;95020.03;4823549;29;20525;-83
2021/01/03 07:09:55;;;;;;;39.20;25.27;;;;;;;7.99;98.32;95010.66;4823014;29;20498;-85
2021/01/03 07:12:34;;;;;;;40.17;20.33;;;;;;;7.86;98.44;95017.75;4792987;29;20516;-85
2021/01/03 07:15:01;;;;;;;46.03;26.17;;;;;;;7.70;99.51;95010.16;4822892;29;20453;-85
2021/01/03 07:18:09;;;;;;;45.63;27.87;;;;;;;7.53;100.00;95023.59;4822850;29;20460;-84
2021/01/03 07:20:47;;;;;;;41.30;23.27;;;;;;;7.57;100.00;95006.78;4822715;29;21233;-85
2021/01/03 07:23:20;;;;;;;41.53;25.17;;;;;;;7.68;100.00;94999.00;4829371;29;21035;-86
2021/01/03 07:25:56;;;;;;;39.30;24.13;;;;;;;7.33;100.00;95010.16;4878268;29;20942;-83
2021/01/03 07:28:28;;;;;;;39.30;24.73;;;;;;;7.32;100.00;95013.72;4887438;29;20439;-84
2021/01/03 07:31:10;;;;;;;31.47;20.63;;;;;;;7.29;100.00;95008.72;4942619;28;20487;-85
2021/01/03 07:33:51;;;;;;;30.97;20.67;;;;;;;7.28;100.00;94991.38;4975143;28;20450;-84
2021/01/03 07:36:26;;;;;;;19.80;14.50;;;;;;;7.16;100.00;94987.00;4974668;28;20453;-84
2021/01/03 07:39:13;;;;;;;26.73;18.02;;;;;;;7.25;100.00;94983.78;4974530;28;20819;-83
2021/01/03 07:41:40;;;;;;;33.33;20.97;;;;;;;7.44;100.00;94991.13;4975605;28;20205;-85
2021/01/03 07:44:08;;;;;;;17.70;13.63;;;;;;;7.50;100.00;94979.41;4975418;28;21028;-85
2021/01/03 07:46:45;;;;;;;15.80;11.50;;;;;;;7.50;100.00;94976.78;4974822;28;20460;-85
2021/01/03 07:49:33;;;;;;;16.10;12.57;;;;;;;7.49;100.00;94977.72;4974952;28;20875;-85
2021/01/03 07:52:02;;;;;;;14.00;11.57;;;;;;;7.39;100.00;94986.22;4980737;28;20456;-84
2021/01/03 07:54:29;;;;;;;14.50;11.17;;;;;;;7.39;100.00;94988.84;4994708;28;20456;-84
2021/01/03 07:56:55;;;;;;;18.50;12.17;;;;;;;7.45;100.00;94988.41;4994171;28;20448;-85
2021/01/03 07:59:22;;;;;;;21.13;14.10;;;;;;;7.49;100.00;94996.84;4994079;28;20451;-85
2021/01/03 08:01:51;;;;;;;16.70;12.40;;;;;;;7.47;100.00;95003.94;4993467;28;20452;-84
2021/01/03 08:04:24;;;;;;;12.40;8.60;;;;;;;7.52;100.00;94987.97;4993365;28;20444;-86
2021/01/03 08:06:50;;;;;;;19.03;11.80;;;;;;;7.65;100.00;94994.00;4994317;28;20514;-84
2021/01/03 08:09:25;;;;;;;22.37;16.20;;;;;;;7.68;100.00;94999.00;4994206;28;20866;-85
2021/01/03 08:12:02;;;;;;;20.90;15.57;;;;;;;7.86;100.00;95002.06;4994539;28;20455;-86
2021/01/03 08:14:32;;;;;;;20.83;14.23;;;;;;;9.82;100.00;95004.50;4994124;28;20471;-84
2021/01/03 08:17:00;;;;;;;17.23;12.40;;;;;;;9.13;100.00;95012.56;4996198;28;20800;-84
2021/01/03 08:19:27;;;;;;;19.73;12.83;;;;;;;9.52;100.00;95019.09;4995083;28;20441;-86
2021/01/03 08:21:55;;;;;;;18.90;12.80;;;;;;;9.70;94.53;95027.28;4994384;28;20457;-84
2021/01/03 08:24:21;;;;;;;15.63;11.70;;;;;;;9.68;90.86;95021.34;4994522;28;20516;-84
2021/01/03 08:26:51;;;;;;;16.27;12.00;;;;;;;9.75;90.26;95038.22;4994598;28;20856;-86
2021/01/03 08:29:25;;;;;;;15.00;12.20;;;;;;;9.79;90.36;95028.34;4994274;28;20460;-83
2021/01/03 08:31:53;;;;;;;15.40;10.10;;;;;;;9.79;89.25;95031.78;4993792;28;20454;-85
2021/01/03 08:34:24;;;;;;;21.63;13.57;;;;;;;9.58;88.96;95034.34;4994018;28;20458;-85
2021/01/03 08:36:51;;;;;;;29.27;18.27;;;;;;;9.35;90.27;95030.06;4993471;28;20472;-82
2021/01/03 08:39:18;;;;;;;29.00;17.80;;;;;;;9.23;92.31;95036.22;4993349;28;21168;-82
2021/01/03 08:41:52;;;;;;;24.93;16.70;;;;;;;9.16;92.74;95038.50;4993830;28;20453;-83
2021/01/03 08:44:24;;;;;;;28.73;18.30;;;;;;;9.09;93.14;95044.31;4993772;28;20966;-86
2021/01/03 08:47:01;;;;;;;34.67;18.73;;;;;;;9.06;94.95;95037.53;4993325;28;20476;-85
2021/01/03 08:49:28;;;;;;;50.87;24.40;;;;;;;9.11;95.85;95039.81;4993582;28;20456;-86
2021/01/03 08:52:08;;;;;;;33.23;20.47;;;;;;;9.12;95.59;95037.06;4992814;28;20495;-83
2021/01/03 08:54:35;;;;;;;25.83;16.90;;;;;;;9.10;94.94;95041.59;4993280;28;20448;-88
2021/01/03 08:57:03;;;;;;;24.47;17.47;;;;;;;9.15;96.42;95052.53;4993607;28;20450;-83
2021/01/03 08:59:31;;;;;;;23.47;15.80;;;;;;;9.24;95.67;95050.97;4993278;28;20844;-83
2021/01/03 09:01:57;;;;;;;21.77;14.47;;;;;;;9.25;93.82;95047.41;4993341;28;20450;-84
2021/01/03 09:04:24;;;;;;;19.17;12.47;;;;;;;9.19;93.71;95060.97;4994233;28;20461;-88
2021/01/03 09:06:53;;;;;;;24.17;13.77;;;;;;;9.16;94.62;95061.22;4993517;28;20454;-83
2021/01/03 09:09:22;;;;;;;23.63;13.13;;;;;;;9.10;93.74;95059.91;4993457;28;20860;-80
2021/01/03 09:11:53;;;;;;;24.27;15.73;;;;;;;9.07;94.00;95060.16;4992511;28;20453;-80
2021/01/03 09:14:26;;;;;;;21.70;13.07;;;;;;;9.14;94.55;95060.50;4994420;28;20453;-84
2021/01/03 09:16:58;;;;;;;22.73;12.20;;;;;;;9.16;93.65;95063.84;4997652;28;20483;-84
2021/01/03 09:19:29;;;;;;;14.63;10.57;;;;;;;9.15;91.46;95063.00;4997012;28;20437;-85
2021/01/03 09:21:58;;;;;;;19.23;14.00;;;;;;;9.22;91.98;95061.56;4997249;28;20508;-86
2021/01/03 09:24:28;;;;;;;21.13;15.13;;;;;;;9.28;92.70;95057.69;4996878;28;20513;-86
2021/01/03 09:26:56;;;;;;;20.27;13.50;;;;;;;9.43;92.52;95055.66;4997780;28;20452;-85
2021/01/03 09:29:26;;;;;;;20.50;13.03;;;;;;;9.52;92.38;95049.69;4998016;28;20460;-85
2021/01/03 09:31:57;;;;;;;17.87;11.00;;;;;;;9.54;91.39;95047.78;4998348;28;20880;-85
2021/01/03 09:34:34;;;;;;;16.00;11.37;;;;;;;9.70;91.63;95048.25;4999811;28;20453;-87
2021/01/03 09:37:07;;;;;;;14.73;9.90;;;;;;;9.74;88.59;95044.44;4997848;28;20463;-86
2021/01/03 09:39:53;;;;;;;15.83;10.60;;;;;;;9.80;88.40;95048.34;4998289;28;20835;-85
2021/01/03 09:42:49;;;;;;;14.20;9.80;;;;;;;9.85;87.75;95030.50;4997506;28;20460;-85
2021/01/03 09:45:44;;;;;;;11.97;9.37;;;;;;;9.84;87.14;95045.38;4997390;28;20494;-85
2021/01/03 09:48:26;;;;;;;14.17;10.40;;;;;;;9.89;86.22;95037.16;4998509;28;20455;-86
2021/01/03 09:50:52;;;;;;;17.73;9.77;;;;;;;9.87;85.48;95054.78;5000041;28;20547;-87
2021/01/03 09:53:29;;;;;;;21.10;13.03;;;;;;;9.99;86.18;95045.09;4997686;28;20477;-85
2021/01/03 09:55:59;;;;;;;13.60;9.40;;;;;;;10.03;84.24;95039.50;4997333;28;20948;-85
2021/01/03 09:58:35;;;;;;;11.73;9.77;;;;;;;10.10;84.45;95040.66;4997788;28;20463;-85
2021/01/03 10:01:03;;;;;;;11.13;8.03;;;;;;;10.19;84.43;95039.09;4998000;28;20492;-84
2021/01/03 10:03:39;;;;;;;13.63;9.97;;;;;;;10.33;84.18;95033.59;4963839;28;20971;-87
2021/01/03 10:06:13;;;;;;;15.23;10.03;;;;;;;10.41;83.63;95033.81;4997984;28;20454;-84
2021/01/03 10:08:39;;;;;;;14.73;10.43;;;;;;;10.55;84.18;95030.88;4996662;28;20447;-84
2021/01/03 10:11:06;;;;;;;15.67;10.57;;;;;;;10.70;84.43;95014.84;4987248;28;20487;-86
2021/01/03 10:13:32;;;;;;;18.20;12.03;;;;;;;10.84;85.62;95015.34;4994182;28;20812;-83
2021/01/03 10:16:16;;;;;;;17.80;10.70;;;;;;;10.84;82.29;95017.13;4996883;28;20549;-84
2021/01/03 10:18:43;;;;;;;12.77;9.20;;;;;;;10.93;82.22;95010.25;4987120;28;20475;-84
2021/01/03 10:21:28;;;;;;;12.30;9.50;;;;;;;11.10;82.06;95017.56;4981646;28;20544;-85
2021/01/03 10:23:56;;;;;;;12.80;9.50;;;;;;;11.02;79.96;95023.47;4976231;28;20820;-84
2021/01/03 10:26:27;;;;;;;12.13;9.43;;;;;;;11.11;80.83;95021.84;4975495;28;20952;-84
2021/01/03 10:28:54;;;;;;;22.90;13.87;;;;;;;11.17;81.39;95016.91;4976538;28;20449;-83
2021/01/03 10:31:22;;;;;;;19.20;12.50;;;;;;;11.12;81.20;95019.09;4976489;28;20493;-85
2021/01/03 10:33:50;;;;;;;19.90;12.73;;;;;;;11.03;82.14;95013.78;4976538;28;20827;-84
2021/01/03 10:36:18;;;;;;;18.37;12.70;;;;;;;11.01;81.43;95008.69;4976048;28;21220;-82
2021/01/03 10:38:45;;;;;;;16.23;11.73;;;;;;;11.04;83.17;94997.91;4984031;28;20455;-85
2021/01/03 10:41:13;;;;;;;18.73;12.63;;;;;;;11.13;82.45;95002.38;4995563;28;20511;-84
2021/01/03 10:43:39;;;;;;;24.60;13.93;;;;;;;11.15;83.27;95002.25;4995204;28;20452;-81
2021/01/03 10:46:06;;;;;;;32.93;18.23;;;;;;;11.14;83.68;94993.53;4995684;28;20496;-84
2021/01/03 10:48:32;;;;;;;31.33;14.07;;;;;;;11.20;83.26;95005.28;4995383;28;20452;-84
2021/01/03 10:50:59;;;;;;;15.63;12.23;;;;;;;11.23;83.07;94998.94;4995220;28;20941;-83
2021/01/03 10:53:26;;;;;;;18.87;12.30;;;;;;;11.33;82.44;95005.94;4994775;28;20459;-84
2021/01/03 10:55:52;;;;;;;23.43;10.93;;;;;;;11.34;82.02;94989.19;4995389;28;20815;-84
2021/01/03 10:58:18;;;;;;;15.77;12.43;;;;;;;11.32;82.12;94991.13;4995661;28;20512;-84
2021/01/03 11:00:45;;;;;;;17.70;11.27;;;;;;;11.39;82.46;94984.38;4995475;28;20456;-84
2021/01/03 11:03:11;;;;;;;16.17;11.10;;;;;;;11.41;82.43;94977.19;4994836;28;20945;-82
2021/01/03 11:05:38;;;;;;;16.83;12.20;;;;;;;11.36;82.34;94978.56;4995816;28;20502;-83
2021/01/03 11:08:06;;;;;;;21.10;14.23;;;;;;;11.42;82.77;94978.84;4996178;28;20547;-87
2021/01/03 11:10:32;;;;;;;23.43;14.50;;;;;;;11.39;82.33;94958.09;5009948;28;20491;-84
2021/01/03 11:12:59;;;;;;;20.90;13.73;;;;;;;11.39;81.89;94965.16;5015917;28;20475;-85
2021/01/03 11:15:25;;;;;;;23.30;13.83;;;;;;;11.42;82.61;94967.50;5016132;28;20478;-85
2021/01/03 11:17:52;;;;;;;23.63;14.30;;;;;;;11.37;81.59;94972.34;5009147;28;20455;-85
2021/01/03 11:20:18;;;;;;;26.37;13.73;;;;;;;11.41;82.21;94971.94;4996526;28;20860;-83
2021/01/03 11:22:44;;;;;;;18.70;12.80;;;;;;;11.47;82.54;94971.41;4995519;28;20963;-85
2021/01/03 11:25:13;;;;;;;14.80;9.63;;;;;;;11.44;81.00;94968.22;4995405;28;20436;-84
2021/01/03 11:27:40;;;;;;;14.43;9.57;;;;;;;11.42;80.34;94989.38;4995554;28;20471;-85
2021/01/03 11:30:08;;;;;;;12.30;9.53;;;;;;;11.36;79.78;94976.75;4961638;28;20494;-85
2021/01/03 11:32:34;;;;;;;17.03;11.03;;;;;;;11.25;81.32;94982.09;4996022;28;20457;-83
2021/01/03 11:35:01;;;;;;;15.37;11.40;;;;;;;11.18;82.73;94973.91;4995960;28;20487;-84
2021/01/03 11:37:30;;;;;;;17.40;10.70;;;;;;;11.17;82.13;94980.13;4995235;28;20455;-83
2021/01/03 11:39:56;;;;;;;18.40;11.63;;;;;;;11.14;82.35;94982.19;4995987;28;20486;-83
2021/01/03 11:42:27;;;;;;;21.67;13.80;;;;;;;11.13;82.34;94984.00;4995100;28;21032;-83